Hadley, Kentucky
Current Conditions -  °F | °C
As of 3:53 PM on Thursday 18 Dec 2014 (Local Time) from KBWG Reporting Station
Overcast Overcast  
Wind Chill: 35°   Ceiling: 3700
Heat Index: 35°   Visibility: 9mi
Dew Point: 26°   Wind: 0mph
Humidity: 70%   Direction: NA
Pressure: 30.22"   Gusts: NA
Location:  37.06°N, 86.61°W
Report Text: KBWG 182153Z AUTO 00000KT 9SM BKN037 OVC060 02/M03 A3022 RMK AO2 SLP238 T00171033
Loading
Personal Weather Stations






























Interactive Weather Map New forecast layout! Learn more

10-Day Weather Forecast

Advertisements
Track Severe Weather on mobile